KEWN/EWN METAR and TAF weather

Enter ICAO airport designator
Station Type Date Time Source
KEWN METAR 2021/07/28 20:54 UTC NOAA

KEWN 282054Z 17009KT 10SM FEW021 29/24 A2996 RMK AO2 LTG DSNT N SLP143 60003 T02940244 58012


Station Type Date Time Source
KEWN Decoded METAR 2021/07/28 20:54 UTC NOAA

New Bern, Craven County Regional Airport, NC, United States (KEWN) 35-04-03N 077-02-50W 3M
Jul 28, 2021 - 04:54 PM EDT / 2021.07.28 2054 UTC
Wind: from the S (170 degrees) at 10 MPH (9 KT):0
Visibility: 10 mile(s):0
Sky conditions: mostly clear
Weather: Lightning observed
Temperature: 84.9 F (29.4 C)
Dew Point: 75.9 F (24.4 C)
Relative Humidity: 74%
Pressure (altimeter): 29.96 in. Hg (1014 hPa)
Pressure tendency: 0.04 inches (1.2 hPa) lower than three hours ago
ob: KEWN 282054Z 17009KT 10SM FEW021 29/24 A2996 RMK AO2 LTG DSNT N SLP143 60003 T02940244 58012
cycle: 21

Station Type Date Time Source
KEWN TAF 2021/07/28 18:22 UTC NOAA

TAF KEWN 281720Z 2818/2918 17004KT P6SM VCSH SCT040 BKN200
FM282100 18006KT P6SM VCTS SCT040CB BKN200
TEMPO 2822/2901 3SM TS BKN040CB
FM290300 VRB03KT P6SM FEW040 SCT200
FM290900 00000KT 3SM BR FEW200
FM291300 00000KT P6SM SCT250

Example: see airport list